Terminal Aerodrome Forecast
Issued by NWS

Home | Current Version | Previous Version | Text Only | Print | Product List | Glossary On
Versions: 1 2 3 4 5 6 7 8 9 10 11 12 13 14 15 16 17 18 19 20 21 22
000
FTUS42 KMLB 300532
TAFLEE
TAF
KLEE 300532Z 3006/3106 24003KT P6SM FEW010 BKN250
     FM301400 21005KT P6SM VCSH SCT020 SCT050 BKN250
     FM301800 23008KT P6SM VCTS SCT040CB BKN100 BKN250
      TEMPO 3019/3021 3SM TSRA BKN035CB
     FM310000 24005KT P6SM FEW035 BKN250=

USA.gov is the U.S. government's official web portal to all federal, state and local government web resources and services.